createdAt,value
2018-05-29T00:00:43.989Z,66.08
2018-05-29T00:01:43.996Z,66.08
2018-05-29T00:03:36.939Z,66.47
2018-05-29T00:04:36.944Z,66.17
2018-05-29T00:06:30.426Z,66.17
2018-05-29T00:07:30.396Z,66.27
2018-05-29T00:09:23.315Z,66.56
2018-05-29T00:10:23.351Z,66.37
2018-05-29T00:12:16.285Z,66.85
2018-05-29T00:13:16.294Z,66.47
2018-05-29T00:15:09.219Z,66.56
2018-05-29T00:16:09.250Z,66.66
2018-05-29T00:18:02.197Z,66.95
2018-05-29T00:19:02.204Z,67.05
2018-05-29T00:20:55.121Z,66.66
2018-05-29T00:21:55.149Z,66.66
2018-05-29T00:23:48.097Z,66.08
2018-05-29T00:24:48.103Z,66.17
2018-05-29T00:26:41.055Z,66.17
2018-05-29T00:27:41.056Z,66.27
2018-05-29T00:29:33.980Z,66.95
2018-05-29T00:30:34.015Z,67.01
2018-05-29T00:32:27.442Z,67.14
2018-05-29T00:33:27.452Z,66.82
2018-05-29T00:35:20.370Z,66.63
2018-05-29T00:36:20.398Z,66.91
2018-05-29T00:38:13.345Z,67.21
2018-05-29T00:39:13.353Z,67.59
2018-05-29T00:41:06.275Z,67.59
2018-05-29T00:42:06.304Z,67.69
2018-05-29T00:43:59.245Z,67.49
2018-05-29T00:44:59.254Z,67.01
2018-05-29T00:46:52.197Z,67.59
2018-05-29T00:47:52.202Z,67.30
2018-05-29T00:49:45.129Z,67.01
2018-05-29T00:50:45.159Z,67.40
2018-05-29T00:52:38.097Z,67.46
2018-05-29T00:53:38.109Z,67.36
2018-05-29T00:55:31.034Z,67.75
2018-05-29T00:56:31.061Z,67.85
2018-05-29T00:58:24.497Z,67.94
2018-05-29T00:59:24.505Z,68.04
2018-05-29T01:01:17.429Z,67.94
2018-05-29T01:02:17.457Z,68.04
2018-05-29T01:04:10.405Z,68.24
2018-05-29T01:05:10.411Z,68.52
2018-05-29T01:07:03.358Z,68.33
2018-05-29T01:08:03.370Z,68.04
2018-05-29T01:09:56.297Z,68.01
2018-05-29T01:10:56.324Z,68.62
2018-05-29T01:12:50.770Z,68.78
2018-05-29T01:13:50.778Z,69.17
2018-05-29T01:15:43.702Z,68.72
2018-05-29T01:16:43.726Z,68.88
2018-05-29T01:18:36.709Z,68.04
2018-05-29T01:19:36.678Z,68.24
2018-05-29T01:21:29.601Z,68.24
2018-05-29T01:22:29.631Z,68.04
2018-05-29T01:24:22.576Z,67.75
2018-05-29T01:25:22.579Z,68.14
2018-05-29T01:27:15.518Z,67.75
2018-05-29T01:28:15.527Z,67.66
2018-05-29T01:30:08.942Z,67.75
2018-05-29T01:31:08.979Z,67.56
2018-05-29T01:33:02.405Z,67.66
2018-05-29T01:34:02.413Z,67.75
2018-05-29T01:35:55.338Z,68.04
2018-05-29T01:36:55.364Z,68.04
2018-05-29T01:38:48.311Z,67.85
2018-05-29T01:39:48.314Z,68.40
2018-05-29T01:41:41.237Z,68.30
2018-05-29T01:42:41.264Z,68.30
2018-05-29T01:44:34.211Z,68.49
2018-05-29T01:45:34.220Z,68.40
2018-05-29T01:47:27.167Z,68.10
2018-05-29T01:48:27.176Z,68.20
2018-05-29T01:50:23.090Z,68.10
2018-05-29T01:51:23.118Z,68.10
2018-05-29T01:53:16.058Z,68.40
2018-05-29T01:54:16.069Z,68.68
2018-05-29T01:56:09.000Z,68.59
2018-05-29T01:57:09.018Z,68.88
2018-05-29T01:59:01.963Z,68.68
2018-05-29T02:00:01.971Z,68.98
2018-05-29T02:01:54.893Z,68.78
2018-05-29T02:02:54.920Z,68.59
2018-05-29T02:04:47.868Z,69.07
2018-05-29T02:05:47.871Z,69.17
2018-05-29T02:07:40.822Z,69.71
2018-05-29T02:08:40.827Z,69.42
2018-05-29T02:10:33.749Z,70.29
2018-05-29T02:11:33.777Z,70.58
2018-05-29T02:13:26.723Z,70.58
2018-05-29T02:14:26.732Z,70.87
2018-05-29T02:16:19.657Z,71.42
2018-05-29T02:17:19.683Z,71.61
2018-05-29T02:19:12.629Z,71.61
2018-05-29T02:20:12.633Z,71.90
2018-05-29T02:22:05.561Z,72.09
2018-05-29T02:23:05.579Z,72.67
2018-05-29T02:24:59.016Z,72.38
2018-05-29T02:25:59.029Z,72.19
2018-05-29T02:27:51.960Z,72.77
2018-05-29T02:28:51.971Z,72.86
2018-05-29T02:30:44.891Z,72.96
2018-05-29T02:31:44.918Z,72.92
2018-05-29T02:33:37.865Z,72.63
2018-05-29T02:34:37.868Z,72.25
2018-05-29T02:36:30.791Z,72.92
2018-05-29T02:37:30.819Z,73.11
2018-05-29T02:39:23.755Z,73.44
2018-05-29T02:40:23.765Z,73.21
2018-05-29T02:42:16.687Z,73.21
2018-05-29T02:43:16.711Z,73.99
2018-05-29T02:45:09.657Z,73.60
2018-05-29T02:46:09.659Z,74.27
2018-05-29T02:48:02.604Z,74.37
2018-05-29T02:49:02.607Z,74.76
2018-05-29T02:50:55.532Z,74.76
2018-05-29T02:51:55.613Z,74.47
2018-05-29T02:53:48.995Z,75.01
2018-05-29T02:54:49.000Z,75.40
2018-05-29T02:56:41.920Z,75.49
2018-05-29T02:57:41.951Z,75.49
2018-05-29T02:59:34.885Z,75.97
2018-05-29T03:00:34.894Z,75.68
2018-05-29T03:02:27.816Z,76.26
2018-05-29T03:03:27.841Z,76.65
2018-05-29T03:05:20.787Z,76.65
2018-05-29T03:06:20.797Z,76.26
2018-05-29T03:08:13.743Z,76.36
2018-05-29T03:09:13.757Z,76.55
2018-05-29T03:11:06.678Z,76.45
2018-05-29T03:12:06.703Z,76.45
2018-05-29T03:13:59.649Z,76.45
2018-05-29T03:14:59.657Z,76.65
2018-05-29T03:16:52.585Z,76.45
2018-05-29T03:17:52.612Z,76.65
2018-05-29T03:19:45.555Z,76.17
2018-05-29T03:20:45.563Z,76.26
2018-05-29T03:22:38.520Z,76.36
2018-05-29T03:23:38.510Z,76.26
2018-05-29T03:25:31.454Z,76.65
2018-05-29T03:26:31.501Z,76.65
2018-05-29T03:28:24.396Z,76.45
2018-05-29T03:29:24.405Z,76.36
2018-05-29T03:31:17.322Z,76.36
2018-05-29T03:32:17.352Z,75.97
2018-05-29T03:34:10.295Z,76.07
2018-05-29T03:35:10.301Z,75.49
2018-05-29T03:37:03.226Z,75.97
2018-05-29T03:38:03.255Z,76.07
2018-05-29T03:39:56.189Z,75.49
2018-05-29T03:40:56.199Z,75.72
2018-05-29T03:42:49.116Z,75.24
2018-05-29T03:43:49.145Z,75.05
2018-05-29T03:45:42.083Z,75.72
2018-05-29T03:46:42.092Z,75.34
2018-05-29T03:48:35.037Z,75.43
2018-05-29T03:49:35.041Z,75.34
2018-05-29T03:51:27.968Z,74.95
2018-05-29T03:52:27.994Z,74.27
2018-05-29T03:54:21.067Z,74.02
2018-05-29T03:55:20.942Z,73.44
2018-05-29T03:57:13.863Z,72.52
2018-05-29T03:58:13.893Z,72.61
2018-05-29T04:00:06.891Z,70.72
2018-05-29T04:01:06.890Z,70.72
2018-05-29T04:02:59.921Z,70.23
2018-05-29T04:03:59.948Z,69.98
2018-05-29T04:05:52.996Z,69.78
2018-05-29T04:06:53.005Z,69.49
2018-05-29T04:08:46.050Z,69.40
2018-05-29T04:09:46.063Z,69.04
2018-05-29T04:11:39.090Z,68.37
2018-05-29T04:12:39.119Z,68.40
2018-05-29T04:14:32.170Z,66.78
2018-05-29T04:15:32.177Z,66.69
2018-05-29T04:17:25.202Z,65.47
2018-05-29T04:18:25.233Z,64.98
2018-05-29T04:20:18.277Z,64.53
2018-05-29T04:21:18.288Z,64.04
2018-05-29T04:23:11.316Z,62.72
2018-05-29T04:24:11.345Z,62.33
2018-05-29T04:26:04.393Z,61.00
2018-05-29T04:27:04.568Z,60.84
2018-05-29T04:28:57.394Z,60.38
2018-05-29T04:29:57.381Z,59.51
2018-05-29T04:31:50.392Z,58.57
2018-05-29T04:32:50.429Z,58.47
2018-05-29T04:34:43.892Z,56.26
2018-05-29T04:35:43.884Z,56.59
2018-05-29T04:37:37.453Z,54.83
2018-05-29T04:38:37.462Z,55.51
2018-05-29T04:40:30.573Z,54.47
2018-05-29T04:41:30.525Z,54.47
2018-05-29T04:43:23.531Z,54.01
2018-05-29T04:44:23.564Z,53.91
2018-05-29T04:46:16.607Z,52.67
2018-05-29T04:47:16.638Z,52.50
2018-05-29T04:49:10.071Z,51.56
2018-05-29T04:50:10.084Z,51.07
2018-05-29T04:52:03.051Z,50.48
2018-05-29T04:53:03.045Z,49.83
2018-05-29T04:54:56.084Z,49.17
2018-05-29T04:55:56.102Z,48.68
2018-05-29T04:57:49.123Z,47.53
2018-05-29T04:58:49.164Z,47.53
2018-05-29T05:00:42.715Z,47.28
2018-05-29T05:01:42.728Z,46.21
2018-05-29T05:03:36.255Z,45.43
2018-05-29T05:04:36.289Z,45.16
2018-05-29T05:06:29.757Z,45.06
2018-05-29T05:07:29.758Z,45.55
2018-05-29T05:09:22.799Z,44.89
2018-05-29T05:10:22.814Z,44.40
2018-05-29T05:12:15.873Z,44.69
2018-05-29T05:13:15.884Z,44.57
2018-05-29T05:15:09.595Z,45.26
2018-05-29T05:16:09.496Z,44.98
2018-05-29T05:18:02.920Z,44.77
2018-05-29T05:19:02.957Z,45.45
2018-05-29T05:20:55.911Z,45.65
2018-05-29T05:21:55.925Z,44.77
2018-05-29T05:23:48.860Z,45.37
2018-05-29T05:24:48.894Z,44.49
2018-05-29T05:26:41.851Z,44.81
2018-05-29T05:27:41.869Z,44.71
2018-05-29T05:29:34.828Z,43.85
2018-05-29T05:30:34.842Z,44.05
2018-05-29T05:32:27.780Z,43.77
2018-05-29T05:33:27.815Z,43.31
2018-05-29T05:35:20.831Z,42.91
2018-05-29T05:36:20.792Z,42.03
2018-05-29T05:38:13.729Z,41.84
2018-05-29T05:39:13.764Z,42.45
2018-05-29T05:41:06.720Z,42.15
2018-05-29T05:42:06.738Z,40.98
2018-05-29T05:43:59.676Z,40.68
2018-05-29T05:44:59.715Z,41.08
2018-05-29T05:46:52.671Z,40.09
2018-05-29T05:47:52.687Z,40.29
2018-05-29T05:49:45.646Z,40.78
2018-05-29T05:50:45.664Z,41.27
2018-05-29T05:52:38.609Z,41.37
2018-05-29T05:53:38.646Z,41.17
2018-05-29T05:55:32.096Z,41.96
2018-05-29T05:56:32.117Z,41.47
2018-05-29T05:58:25.099Z,42.05
2018-05-29T05:59:25.099Z,41.37
2018-05-29T06:01:18.056Z,41.27
2018-05-29T06:02:18.082Z,41.76
2018-05-29T06:04:11.018Z,42.15
2018-05-29T06:05:11.090Z,41.56
2018-05-29T06:07:04.018Z,41.68
2018-05-29T06:08:04.032Z,40.61
2018-05-29T06:09:56.995Z,40.80
2018-05-29T06:10:57.017Z,42.35
2018-05-29T06:12:49.961Z,41.09
2018-05-29T06:13:50.000Z,40.70
2018-05-29T06:15:42.958Z,40.39
2018-05-29T06:16:42.978Z,40.76
2018-05-29T06:18:35.923Z,42.13
2018-05-29T06:19:35.956Z,41.55
2018-05-29T06:21:28.927Z,41.64
2018-05-29T06:22:28.937Z,41.55
2018-05-29T06:24:21.926Z,41.05
2018-05-29T06:25:21.924Z,41.25
2018-05-29T06:27:14.920Z,42.41
2018-05-29T06:28:14.938Z,42.19
2018-05-29T06:30:07.977Z,43.44
2018-05-29T06:31:07.993Z,43.44
2018-05-29T06:33:01.014Z,44.42
2018-05-29T06:34:01.051Z,44.81
2018-05-29T06:35:54.088Z,44.81
2018-05-29T06:36:54.106Z,45.20
2018-05-29T06:38:47.242Z,44.83
2018-05-29T06:39:47.163Z,44.44
2018-05-29T06:41:40.201Z,44.23
2018-05-29T06:42:40.219Z,44.64
2018-05-29T06:44:33.241Z,44.32
2018-05-29T06:45:33.281Z,44.71
2018-05-29T06:47:26.312Z,44.89
2018-05-29T06:48:26.332Z,45.18
2018-05-29T06:50:19.331Z,45.10
2018-05-29T06:51:19.315Z,45.10
2018-05-29T06:53:12.306Z,45.01
2018-05-29T06:54:12.344Z,45.01
2018-05-29T06:56:05.382Z,44.42
2018-05-29T06:57:05.402Z,44.62
2018-05-29T06:58:58.341Z,43.15
2018-05-29T06:59:58.380Z,43.05
2018-05-29T07:01:51.341Z,43.66
2018-05-29T07:02:51.360Z,42.78
2018-05-29T07:04:44.340Z,43.46
2018-05-29T07:05:44.340Z,43.17
2018-05-29T07:07:37.307Z,42.58
2018-05-29T07:08:37.327Z,42.58
2018-05-29T07:10:30.288Z,42.78
2018-05-29T07:11:30.308Z,42.48
2018-05-29T07:13:23.252Z,43.27
2018-05-29T07:14:23.290Z,42.48
2018-05-29T07:16:17.805Z,42.41
2018-05-29T07:17:17.764Z,41.62
2018-05-29T07:19:10.707Z,42.21
2018-05-29T07:20:10.746Z,41.62
2018-05-29T07:22:03.709Z,42.09
2018-05-29T07:23:03.728Z,42.38
2018-05-29T07:24:56.675Z,42.58
2018-05-29T07:25:56.708Z,42.36
2018-05-29T07:27:49.669Z,43.03
2018-05-29T07:28:49.688Z,43.79
2018-05-29T07:30:42.679Z,44.28
2018-05-29T07:31:42.658Z,44.84
2018-05-29T07:33:35.602Z,45.23
2018-05-29T07:34:35.633Z,44.84
2018-05-29T07:36:28.590Z,44.48
2018-05-29T07:37:28.601Z,44.96
2018-05-29T07:39:21.538Z,45.04
2018-05-29T07:40:21.573Z,45.14
2018-05-29T07:42:14.540Z,45.23
2018-05-29T07:43:14.541Z,45.36
2018-05-29T07:45:08.001Z,44.96
2018-05-29T07:46:08.007Z,44.98
2018-05-29T07:48:01.464Z,44.89
2018-05-29T07:49:01.467Z,45.57
2018-05-29T07:50:54.421Z,44.30
2018-05-29T07:51:54.460Z,44.01
2018-05-29T07:53:47.860Z,43.59
2018-05-29T07:54:47.895Z,43.30
2018-05-29T07:56:40.849Z,44.55
2018-05-29T07:57:40.866Z,45.33
2018-05-29T07:59:33.793Z,44.84
2018-05-29T08:00:33.830Z,45.53
2018-05-29T08:02:26.804Z,45.23
2018-05-29T08:03:26.825Z,44.45
2018-05-29T08:05:19.842Z,44.74
2018-05-29T08:06:19.888Z,44.55
2018-05-29T08:08:12.863Z,44.84
2018-05-29T08:09:12.848Z,45.62
2018-05-29T08:11:05.872Z,43.89
2018-05-29T08:12:05.890Z,44.77
2018-05-29T08:13:58.824Z,44.67
2018-05-29T08:14:58.856Z,44.57
2018-05-29T08:16:51.879Z,43.49
2018-05-29T08:17:51.897Z,44.18
2018-05-29T08:19:44.922Z,44.38
2018-05-29T08:20:44.954Z,45.16
2018-05-29T08:22:37.999Z,45.06
2018-05-29T08:23:38.011Z,43.10
2018-05-29T08:25:31.081Z,42.83
2018-05-29T08:26:31.068Z,42.64
2018-05-29T08:28:24.108Z,43.30
2018-05-29T08:29:24.124Z,43.30
2018-05-29T08:31:17.165Z,44.10
2018-05-29T08:32:17.180Z,43.62
2018-05-29T08:34:10.209Z,43.30
2018-05-29T08:35:10.242Z,43.69
2018-05-29T08:37:03.275Z,45.53
2018-05-29T08:38:03.293Z,44.84
2018-05-29T08:39:56.316Z,45.14
2018-05-29T08:40:56.348Z,44.74
2018-05-29T08:42:49.389Z,44.65
2018-05-29T08:43:49.408Z,45.33
2018-05-29T08:45:42.429Z,45.23
2018-05-29T08:46:42.461Z,44.94
2018-05-29T08:48:35.508Z,45.72
2018-05-29T08:49:35.518Z,46.11
2018-05-29T08:51:28.559Z,45.04
2018-05-29T08:52:28.575Z,45.23
2018-05-29T08:54:21.600Z,45.80
2018-05-29T08:55:21.634Z,45.31
2018-05-29T08:57:15.184Z,45.39
2018-05-29T08:58:15.201Z,45.87
2018-05-29T09:00:08.220Z,46.07
2018-05-29T09:01:08.256Z,45.07
2018-05-29T09:03:01.306Z,45.95
2018-05-29T09:04:01.362Z,46.66
2018-05-29T09:06:06.587Z,46.19
2018-05-29T09:07:11.515Z,45.80
2018-05-29T09:08:47.316Z,44.80
2018-05-29T09:09:47.334Z,45.12
2018-05-29T09:11:40.277Z,45.29
2018-05-29T09:12:40.295Z,46.26
2018-05-29T09:14:33.217Z,45.39
2018-05-29T09:15:33.247Z,45.51
2018-05-29T09:17:26.206Z,45.51
2018-05-29T09:18:26.218Z,45.21
2018-05-29T09:20:19.147Z,45.48
2018-05-29T09:21:19.181Z,46.09
2018-05-29T09:23:12.125Z,45.02
2018-05-29T09:24:12.140Z,45.12
2018-05-29T09:26:05.144Z,46.19
2018-05-29T09:27:05.099Z,46.11
2018-05-29T09:28:58.053Z,44.84
2018-05-29T09:29:58.084Z,45.33
2018-05-29T09:31:51.027Z,44.84
2018-05-29T09:32:51.023Z,45.23
2018-05-29T09:34:43.969Z,44.84
2018-05-29T09:35:43.989Z,45.23
2018-05-29T09:37:36.948Z,45.41
2018-05-29T09:38:36.952Z,45.33
2018-05-29T09:40:29.880Z,44.26
2018-05-29T09:41:29.964Z,43.48
2018-05-29T09:43:22.865Z,42.79
2018-05-29T09:44:22.870Z,43.18
2018-05-29T09:46:15.798Z,42.91
2018-05-29T09:47:15.834Z,43.49
2018-05-29T09:49:08.779Z,42.61
2018-05-29T09:50:08.793Z,43.30
2018-05-29T09:52:01.745Z,42.13
2018-05-29T09:53:01.764Z,41.76
2018-05-29T09:54:54.685Z,41.76
2018-05-29T09:55:54.711Z,41.56
2018-05-29T09:57:47.666Z,40.88
2018-05-29T09:58:47.674Z,40.78
2018-05-29T10:00:40.607Z,40.97
2018-05-29T10:01:40.635Z,42.54
2018-05-29T10:03:33.589Z,40.39
2018-05-29T10:04:33.599Z,41.36
2018-05-29T10:06:26.531Z,40.86
2018-05-29T10:07:26.567Z,41.66
2018-05-29T10:09:19.523Z,42.74
2018-05-29T10:10:19.534Z,42.25
2018-05-29T10:12:13.488Z,41.56
2018-05-29T10:13:13.556Z,40.50
2018-05-29T10:15:06.440Z,40.31
2018-05-29T10:16:06.471Z,40.00
2018-05-29T10:18:00.425Z,40.58
2018-05-29T10:19:00.434Z,40.00
2018-05-29T10:20:53.376Z,40.00
2018-05-29T10:21:53.403Z,40.97
2018-05-29T10:23:46.356Z,39.98
2018-05-29T10:24:46.369Z,41.05
2018-05-29T10:26:39.360Z,40.27
2018-05-29T10:27:39.338Z,40.56
2018-05-29T10:29:32.292Z,40.68
2018-05-29T10:30:32.301Z,40.78
2018-05-29T10:32:25.309Z,40.88
2018-05-29T10:33:25.271Z,41.56
2018-05-29T10:35:18.192Z,40.88
2018-05-29T10:36:18.224Z,40.58
2018-05-29T10:38:11.180Z,40.78
2018-05-29T10:39:11.189Z,41.97
2018-05-29T10:41:04.126Z,41.49
2018-05-29T10:42:04.151Z,41.58
2018-05-29T10:43:57.273Z,40.70
2018-05-29T10:44:57.277Z,40.11
2018-05-29T10:46:50.205Z,39.92
2018-05-29T10:47:50.245Z,40.01
2018-05-29T10:49:43.191Z,40.50
2018-05-29T10:50:43.215Z,40.60
2018-05-29T10:52:36.207Z,39.92
2018-05-29T10:53:36.168Z,39.53
2018-05-29T10:55:29.124Z,41.29
2018-05-29T10:56:29.141Z,42.46
2018-05-29T10:58:22.092Z,41.00
2018-05-29T10:59:22.104Z,40.80
2018-05-29T11:01:15.044Z,41.02
2018-05-29T11:02:15.073Z,40.53
2018-05-29T11:04:08.031Z,41.39
2018-05-29T11:05:08.048Z,40.92
2018-05-29T11:07:00.977Z,41.21
2018-05-29T11:08:01.011Z,40.53
2018-05-29T11:09:53.966Z,40.64
2018-05-29T11:10:53.976Z,39.96
2018-05-29T11:12:46.977Z,40.45
2018-05-29T11:13:46.989Z,40.55
2018-05-29T11:15:39.924Z,41.03
2018-05-29T11:16:40.005Z,40.16
2018-05-29T11:18:33.096Z,40.55
2018-05-29T11:19:32.919Z,39.56
2018-05-29T11:21:25.863Z,41.23
2018-05-29T11:22:25.895Z,41.03
2018-05-29T11:24:18.850Z,41.03
2018-05-29T11:25:18.862Z,40.35
2018-05-29T11:27:11.794Z,39.47
2018-05-29T11:28:11.831Z,40.06
2018-05-29T11:30:04.793Z,39.56
2018-05-29T11:31:04.803Z,40.74
2018-05-29T11:32:57.757Z,39.94
2018-05-29T11:33:57.770Z,40.94
2018-05-29T11:35:50.734Z,40.94
2018-05-29T11:36:50.769Z,40.74
2018-05-29T11:38:43.719Z,40.72
2018-05-29T11:39:43.746Z,40.74
2018-05-29T11:41:37.163Z,40.94
2018-05-29T11:42:37.199Z,41.60
2018-05-29T11:44:30.158Z,41.41
2018-05-29T11:45:30.173Z,41.11
2018-05-29T11:47:30.246Z,41.02
2018-05-29T11:48:23.141Z,41.19
2018-05-29T11:50:16.098Z,41.78
2018-05-29T11:51:16.113Z,41.97
2018-05-29T11:53:09.541Z,42.17
2018-05-29T11:54:09.578Z,42.17
2018-05-29T11:56:02.531Z,42.56
2018-05-29T11:57:02.544Z,43.05
2018-05-29T11:58:55.498Z,42.66
2018-05-29T11:59:55.521Z,42.66
2018-05-29T12:01:48.521Z,42.54
2018-05-29T12:02:48.480Z,42.54
2018-05-29T12:04:41.436Z,43.08
2018-05-29T12:05:41.452Z,43.38
2018-05-29T12:07:34.409Z,44.06
2018-05-29T12:08:34.426Z,43.96
2018-05-29T12:10:27.379Z,44.74
2018-05-29T12:11:27.396Z,44.55
2018-05-29T12:13:20.329Z,44.57
2018-05-29T12:14:20.362Z,44.77
2018-05-29T12:16:13.317Z,44.69
2018-05-29T12:17:13.841Z,44.79
2018-05-29T12:19:06.263Z,43.54
2018-05-29T12:20:06.294Z,43.73
2018-05-29T12:21:59.249Z,43.56
2018-05-29T12:22:59.260Z,43.56
2018-05-29T12:24:52.235Z,42.97
2018-05-29T12:25:52.232Z,43.37
2018-05-29T12:27:45.168Z,42.48
2018-05-29T12:28:45.201Z,42.68
2018-05-29T12:30:38.159Z,42.85
2018-05-29T12:31:38.174Z,43.15
2018-05-29T12:33:31.110Z,43.05
2018-05-29T12:34:31.146Z,42.95
2018-05-29T12:36:24.099Z,43.84
2018-05-29T12:37:24.142Z,43.73
2018-05-29T12:39:17.046Z,44.93
2018-05-29T12:40:17.139Z,44.24
2018-05-29T12:42:10.035Z,44.07
2018-05-29T12:43:10.047Z,43.68
2018-05-29T12:45:02.990Z,41.64
2018-05-29T12:46:03.022Z,40.35
2018-05-29T12:47:55.974Z,39.56
2018-05-29T12:48:55.984Z,40.06
2018-05-29T12:50:48.946Z,40.06
2018-05-29T12:51:48.961Z,40.74
2018-05-29T12:53:41.937Z,38.78
2018-05-29T12:54:41.932Z,39.69
2018-05-29T12:56:34.885Z,39.59
2018-05-29T12:57:34.903Z,38.51
2018-05-29T12:59:27.838Z,39.00
2018-05-29T13:00:27.868Z,38.92
2018-05-29T13:02:20.826Z,39.31
2018-05-29T13:03:20.840Z,38.13
2018-05-29T13:05:13.776Z,37.86
2018-05-29T13:06:13.831Z,38.06
2018-05-29T13:08:06.767Z,37.66
2018-05-29T13:09:06.781Z,37.96
2018-05-29T13:10:59.736Z,37.65
2018-05-29T13:11:59.752Z,37.84
2018-05-29T13:13:52.689Z,38.92
2018-05-29T13:14:52.724Z,39.39
2018-05-29T13:16:46.208Z,39.70
2018-05-29T13:17:46.187Z,38.43
2018-05-29T13:19:39.125Z,39.14
2018-05-29T13:20:39.160Z,39.03
2018-05-29T13:22:32.128Z,38.64
2018-05-29T13:23:32.138Z,38.25
2018-05-29T13:25:26.565Z,37.88
2018-05-29T13:26:26.600Z,37.38
2018-05-29T13:28:19.557Z,37.68
2018-05-29T13:29:19.573Z,36.78
2018-05-29T13:31:12.530Z,37.66
2018-05-29T13:32:12.549Z,37.66
2018-05-29T13:34:05.487Z,38.82
2018-05-29T13:35:05.519Z,38.92
2018-05-29T13:36:58.472Z,38.82
2018-05-29T13:37:58.487Z,38.72
2018-05-29T13:39:51.424Z,38.92
2018-05-29T13:40:51.458Z,38.33
2018-05-29T13:42:44.416Z,39.11
2018-05-29T13:43:44.434Z,38.53
2018-05-29T13:45:37.438Z,39.09
2018-05-29T13:46:37.471Z,39.00
2018-05-29T13:48:30.557Z,39.37
2018-05-29T13:49:30.524Z,39.98
2018-05-29T13:51:23.567Z,40.08
2018-05-29T13:52:23.583Z,40.08
2018-05-29T13:54:16.608Z,39.78
2018-05-29T13:55:16.668Z,39.69
2018-05-29T13:57:09.676Z,39.39
2018-05-29T13:58:09.622Z,39.09
2018-05-29T14:00:02.614Z,38.60
2018-05-29T14:01:02.653Z,39.00
2018-05-29T14:02:55.706Z,39.39
2018-05-29T14:03:55.727Z,38.51
2018-05-29T14:05:48.730Z,39.49
2018-05-29T14:06:48.787Z,39.00
2018-05-29T14:08:41.846Z,38.80
2018-05-29T14:09:41.818Z,38.70
2018-05-29T14:11:36.293Z,40.08
2018-05-29T14:12:36.309Z,39.29
2018-05-29T14:14:29.333Z,39.49
2018-05-29T14:15:29.375Z,38.80
2018-05-29T14:17:22.406Z,39.19
2018-05-29T14:18:22.425Z,39.90
2018-05-29T14:20:15.442Z,39.51
2018-05-29T14:21:15.483Z,39.22
2018-05-29T14:23:08.524Z,39.01
2018-05-29T14:24:08.541Z,38.84
2018-05-29T14:26:11.483Z,38.35
2018-05-29T14:27:11.531Z,38.54
2018-05-29T14:29:04.473Z,39.33
2018-05-29T14:30:04.495Z,38.85
2018-05-29T14:31:57.442Z,38.27
2018-05-29T14:32:57.455Z,38.56
2018-05-29T14:34:50.391Z,38.66
2018-05-29T14:35:50.426Z,39.03
2018-05-29T14:37:43.383Z,40.03
2018-05-29T14:38:43.396Z,40.23
2018-05-29T14:40:36.341Z,38.78
2018-05-29T14:41:36.364Z,38.29
2018-05-29T14:43:29.340Z,38.58
2018-05-29T14:44:29.342Z,38.29
2018-05-29T14:46:22.496Z,38.29
2018-05-29T14:47:22.531Z,39.27
2018-05-29T14:49:15.522Z,39.17
2018-05-29T14:50:15.499Z,39.56
2018-05-29T14:52:08.458Z,39.66
2018-05-29T14:53:08.470Z,39.86
2018-05-29T14:55:01.408Z,40.06
2018-05-29T14:56:01.437Z,38.58
2018-05-29T14:57:54.404Z,39.76
2018-05-29T14:58:54.419Z,39.66
2018-05-29T15:00:47.375Z,38.78
2018-05-29T15:01:47.405Z,38.66
2018-05-29T15:03:40.364Z,39.74
2018-05-29T15:04:40.385Z,39.45
2018-05-29T15:06:33.334Z,40.13
2018-05-29T15:07:33.372Z,39.84
2018-05-29T15:09:26.328Z,40.82
2018-05-29T15:10:26.339Z,40.92
2018-05-29T15:12:19.307Z,39.94
2018-05-29T15:13:19.313Z,40.13
2018-05-29T15:15:12.259Z,40.03
2018-05-29T15:16:12.280Z,40.13
2018-05-29T15:18:05.235Z,39.35
2018-05-29T15:19:05.250Z,39.54
2018-05-29T15:20:58.181Z,39.35
2018-05-29T15:21:58.215Z,39.15
2018-05-29T15:23:51.200Z,38.45
2018-05-29T15:24:51.188Z,39.01
2018-05-29T15:26:44.119Z,38.92
2018-05-29T15:27:44.153Z,39.00
2018-05-29T15:29:37.133Z,39.09
2018-05-29T15:30:37.117Z,39.17
2018-05-29T15:32:30.075Z,39.96
2018-05-29T15:33:30.089Z,39.86
2018-05-29T15:35:23.027Z,39.94
2018-05-29T15:36:23.060Z,39.84
2018-05-29T15:38:16.017Z,40.53
2018-05-29T15:39:16.024Z,40.92
2018-05-29T15:41:08.957Z,40.01
2018-05-29T15:42:08.990Z,40.70
2018-05-29T15:44:01.956Z,42.17
2018-05-29T15:45:01.954Z,42.36
2018-05-29T15:46:54.888Z,41.97
2018-05-29T15:47:54.918Z,42.07
2018-05-29T15:49:47.872Z,42.56
2018-05-29T15:50:47.884Z,42.46
2018-05-29T15:52:40.840Z,42.95
2018-05-29T15:53:40.851Z,43.63
2018-05-29T15:55:33.802Z,42.95
2018-05-29T15:56:33.866Z,42.66
2018-05-29T15:58:26.778Z,43.23
2018-05-29T15:59:26.786Z,43.13
2018-05-29T16:01:19.718Z,42.15
2018-05-29T16:02:19.752Z,41.76
2018-05-29T16:04:12.718Z,40.78
2018-05-29T16:05:12.773Z,40.95
2018-05-29T16:07:05.673Z,41.44
2018-05-29T16:08:05.698Z,41.93
2018-05-29T16:09:59.627Z,42.22
2018-05-29T16:10:59.640Z,42.03
2018-05-29T16:12:52.609Z,42.13
2018-05-29T16:13:52.604Z,42.32
2018-05-29T16:15:45.560Z,42.91
2018-05-29T16:16:45.592Z,43.30
2018-05-29T16:18:38.543Z,43.49
2018-05-29T16:19:38.552Z,43.48
2018-05-29T16:21:31.479Z,44.55
2018-05-29T16:22:31.514Z,43.77
2018-05-29T16:24:24.485Z,42.24
2018-05-29T16:25:24.484Z,42.20
2018-05-29T16:27:17.468Z,44.20
2018-05-29T16:28:17.458Z,45.62
2018-05-29T16:30:10.404Z,50.68
2018-05-29T16:31:10.413Z,53.27
2018-05-29T16:33:03.368Z,53.83
2018-05-29T16:34:03.373Z,52.64
2018-05-29T16:35:56.345Z,51.37
2018-05-29T16:36:56.333Z,53.22
2018-05-29T16:38:49.286Z,53.61
2018-05-29T16:39:49.321Z,53.77
2018-05-29T16:41:42.265Z,54.06
2018-05-29T16:42:42.271Z,57.45
2018-05-29T16:44:35.251Z,58.42
2018-05-29T16:45:35.201Z,58.91
2018-05-29T16:47:28.128Z,63.17
2018-05-29T16:48:28.776Z,64.40
2018-05-29T16:50:21.591Z,65.75
2018-05-29T16:51:21.602Z,65.34
2018-05-29T16:53:14.553Z,69.40
2018-05-29T16:54:14.584Z,67.56
2018-05-29T16:56:07.673Z,66.37
2018-05-29T16:57:07.694Z,68.11
2018-05-29T16:59:00.646Z,68.69
2018-05-29T17:00:00.645Z,70.14
2018-05-29T17:01:53.609Z,71.50
2018-05-29T17:02:53.615Z,71.78
2018-05-29T17:04:46.611Z,72.52
2018-05-29T17:05:46.570Z,72.24
2018-05-29T17:07:40.490Z,72.72
2018-05-29T17:08:40.525Z,73.01
2018-05-29T17:10:33.468Z,72.72
2018-05-29T17:11:33.468Z,73.20
2018-05-29T17:13:26.417Z,72.62
2018-05-29T17:14:26.419Z,72.62
2018-05-29T17:16:19.339Z,72.81
2018-05-29T17:17:19.369Z,72.72
2018-05-29T17:19:12.316Z,74.27
2018-05-29T17:20:12.321Z,71.66
2018-05-29T17:22:05.253Z,72.14
2018-05-29T17:23:05.278Z,71.84
2018-05-29T17:24:58.227Z,70.88
2018-05-29T17:25:58.228Z,72.04
2018-05-29T17:27:51.149Z,73.78
2018-05-29T17:28:51.178Z,73.30
2018-05-29T17:30:44.121Z,72.78
2018-05-29T17:31:44.127Z,72.52
2018-05-29T17:33:37.166Z,73.49
2018-05-29T17:34:37.078Z,73.20
2018-05-29T17:36:30.036Z,71.46
2018-05-29T17:37:30.034Z,71.11
2018-05-29T17:39:23.004Z,71.84
2018-05-29T17:40:22.986Z,72.39
2018-05-29T17:42:15.912Z,73.32
2018-05-29T17:43:15.932Z,74.29
2018-05-29T17:45:08.962Z,75.51
2018-05-29T17:46:08.908Z,75.51
2018-05-29T17:48:01.839Z,76.28
2018-05-29T17:49:01.861Z,76.76
2018-05-29T17:50:54.808Z,77.05
2018-05-29T17:51:54.825Z,77.73
2018-05-29T17:53:47.785Z,76.57
2018-05-29T17:54:47.768Z,77.05
2018-05-29T17:56:40.688Z,76.95
2018-05-29T17:57:40.891Z,77.83
2018-05-29T17:59:33.691Z,77.05
2018-05-29T18:00:33.661Z,76.80
2018-05-29T18:02:26.610Z,76.51
2018-05-29T18:03:26.652Z,75.93
2018-05-29T18:05:19.584Z,76.22
2018-05-29T18:06:19.592Z,76.42
2018-05-29T18:08:12.533Z,76.03
2018-05-29T18:09:19.676Z,76.51
2018-05-29T18:11:05.493Z,76.70
2018-05-29T18:12:05.504Z,76.80
2018-05-29T18:13:58.665Z,77.67
2018-05-29T18:14:58.613Z,78.15
2018-05-29T18:16:51.541Z,78.59
2018-05-29T18:17:51.562Z,78.69
2018-05-29T18:19:44.505Z,78.89
2018-05-29T18:20:44.560Z,78.34
2018-05-29T18:22:37.478Z,79.50
2018-05-29T18:23:37.472Z,79.31
2018-05-29T18:25:30.484Z,79.80
2018-05-29T18:26:30.444Z,78.73
2018-05-29T18:28:23.456Z,78.15
2018-05-29T18:29:23.392Z,78.34
2018-05-29T18:31:16.384Z,78.34
2018-05-29T18:32:16.380Z,78.34
2018-05-29T18:34:09.294Z,78.44